createdAt,value
2022-11-17T01:00:37.336Z,84.47
2022-11-17T01:02:23.488Z,67.31
2022-11-17T01:04:09.661Z,66.56
2022-11-17T01:05:55.836Z,72.28
2022-11-17T01:07:42.676Z,79.41
2022-11-17T01:09:28.849Z,109.22
2022-11-17T01:11:15.081Z,146.62
2022-11-17T01:13:01.349Z,165.66
2022-11-17T01:14:47.622Z,174.47
2022-11-17T01:16:33.946Z,173.81
2022-11-17T01:18:20.169Z,157.22
2022-11-17T01:20:06.746Z,203.16
2022-11-17T01:21:53.252Z,239.72
2022-11-17T01:23:39.520Z,266.62
2022-11-17T01:25:25.764Z,266.91
2022-11-17T01:27:12.058Z,250.31
2022-11-17T01:28:58.420Z,238.22
2022-11-17T01:30:44.700Z,300.19
2022-11-17T01:32:31.003Z,316.69
2022-11-17T01:34:17.139Z,320.44
2022-11-17T01:36:03.583Z,403.03
2022-11-17T01:37:49.885Z,284.34
2022-11-17T01:39:36.098Z,376.97
2022-11-17T01:41:22.387Z,334.22
2022-11-17T01:43:09.319Z,238.41
2022-11-17T01:44:55.589Z,246.75
2022-11-17T01:46:41.859Z,208.12
2022-11-17T01:48:28.136Z,286.12
2022-11-17T01:50:14.445Z,330.38
2022-11-17T01:52:00.690Z,247.41
2022-11-17T01:53:46.875Z,213.00
2022-11-17T01:55:33.158Z,260.06
2022-11-17T01:57:19.623Z,293.44
2022-11-17T01:59:06.192Z,228.56
2022-11-17T02:00:52.436Z,211.12
2022-11-17T02:02:38.702Z,232.97
2022-11-17T02:04:25.319Z,163.12
2022-11-17T02:06:11.472Z,207.28
2022-11-17T02:07:58.052Z,249.38
2022-11-17T02:09:44.289Z,216.28
2022-11-17T02:11:30.767Z,301.78
2022-11-17T14:43:34.912Z,0.00
2022-11-17T14:45:21.774Z,0.00
2022-11-17T14:47:08.130Z,0.00
